Time;durP1;ratioP1;P1;durP2;ratioP2;P2;SDS_P1;SDS_P2;PMS_P1;PMS_P2;Temp;Humidity;BMP_temperature;BMP_pressure;BME280_temperature;BME280_humidity;BME280_pressure;Samples;Min_cycle;Max_cycle;Signal;HPM_P1;HPM_P2
2022/07/01 00:02:04;;;;;;;10.77;6.05;;;19.90;99.90;;;;;;5011944;28;20314;-68
2022/07/01 00:04:31;;;;;;;10.40;6.65;;;19.90;99.90;;;;;;5018931;28;20199;-67
2022/07/01 00:06:58;;;;;;;10.23;7.07;;;20.00;99.90;;;;;;5021601;28;20208;-67
2022/07/01 00:09:26;;;;;;;9.50;6.32;;;19.90;99.90;;;;;;5013446;28;20639;-68
2022/07/01 00:11:53;;;;;;;8.73;6.53;;;19.90;99.90;;;;;;5012811;28;20205;-67
2022/07/01 00:14:22;;;;;;;9.77;6.35;;;19.90;99.90;;;;;;5012359;28;20259;-68
2022/07/01 00:16:51;;;;;;;8.52;6.38;;;19.80;99.90;;;;;;5013316;28;20295;-68
2022/07/01 00:19:18;;;;;;;8.13;6.45;;;19.70;99.90;;;;;;5012748;28;20718;-68
2022/07/01 00:21:45;;;;;;;10.02;7.10;;;19.80;99.90;;;;;;5013235;28;20286;-67
2022/07/01 00:24:12;;;;;;;9.60;6.68;;;19.70;99.90;;;;;;5011700;28;20242;-68
2022/07/01 00:26:39;;;;;;;9.85;6.75;;;19.70;99.90;;;;;;5023887;28;20257;-67
2022/07/01 00:29:06;;;;;;;8.32;7.15;;;19.70;99.90;;;;;;5013532;28;20200;-67
2022/07/01 00:31:33;;;;;;;10.30;7.00;;;19.70;99.90;;;;;;5013945;28;20205;-68
2022/07/01 00:34:01;;;;;;;8.45;6.75;;;19.70;99.90;;;;;;5013176;28;20205;-68
2022/07/01 00:36:29;;;;;;;8.70;6.30;;;19.70;99.90;;;;;;5021947;28;20203;-67
2022/07/01 00:38:56;;;;;;;11.45;8.05;;;19.70;99.90;;;;;;5020373;28;20197;-68
2022/07/01 00:41:23;;;;;;;11.68;9.07;;;19.50;99.90;;;;;;5020346;28;20207;-67
2022/07/01 00:43:50;;;;;;;11.07;9.02;;;19.50;99.90;;;;;;5032550;28;20250;-68
2022/07/01 00:46:17;;;;;;;11.77;9.32;;;19.30;99.90;;;;;;5021287;28;20251;-67
2022/07/01 00:48:45;;;;;;;13.77;9.82;;;19.20;99.90;;;;;;5012259;28;20232;-67
2022/07/01 00:51:14;;;;;;;12.48;9.55;;;19.10;99.90;;;;;;5016365;28;20200;-68
2022/07/01 00:53:41;;;;;;;11.02;9.48;;;19.00;99.90;;;;;;5023781;28;20231;-67
2022/07/01 00:56:08;;;;;;;11.95;9.50;;;18.90;99.90;;;;;;5023794;28;20274;-67
2022/07/01 00:58:37;;;;;;;11.82;9.82;;;19.10;99.90;;;;;;5012120;28;20283;-68
2022/07/01 01:01:04;;;;;;;11.60;10.00;;;19.00;99.90;;;;;;5011231;28;20210;-67
2022/07/01 01:03:31;;;;;;;12.35;9.65;;;18.80;99.90;;;;;;5029696;28;20227;-68
2022/07/01 01:05:58;;;;;;;10.60;9.27;;;18.80;99.90;;;;;;5014044;28;20247;-69
2022/07/01 01:08:27;;;;;;;10.55;9.45;;;18.70;99.90;;;;;;4992986;28;20738;-67
2022/07/01 01:10:54;;;;;;;10.95;8.95;;;18.70;99.90;;;;;;5010393;28;20209;-67
2022/07/01 01:13:21;;;;;;;11.50;9.20;;;18.60;99.90;;;;;;5013552;28;20205;-67
2022/07/01 01:15:48;;;;;;;10.18;8.30;;;18.60;99.90;;;;;;5010550;28;20299;-67
2022/07/01 01:18:15;;;;;;;9.93;8.20;;;18.60;99.90;;;;;;5024192;28;20287;-67
2022/07/01 01:20:44;;;;;;;10.43;8.60;;;18.40;99.90;;;;;;5028885;28;20323;-67
2022/07/01 01:23:11;;;;;;;10.75;8.85;;;18.50;99.90;;;;;;5032005;28;20775;-67
2022/07/01 01:25:38;;;;;;;9.75;8.73;;;18.40;99.90;;;;;;5014322;28;20508;-67
2022/07/01 01:28:05;;;;;;;9.88;8.82;;;18.30;99.90;;;;;;5021961;28;20284;-67
2022/07/01 01:30:32;;;;;;;10.82;9.73;;;18.40;99.90;;;;;;5012672;28;20287;-67
2022/07/01 01:32:59;;;;;;;12.70;8.48;;;18.30;99.90;;;;;;5031624;28;20550;-67
2022/07/01 01:35:26;;;;;;;11.85;9.63;;;18.40;99.90;;;;;;5014621;28;20655;-67
2022/07/01 01:37:55;;;;;;;10.65;9.50;;;18.20;99.90;;;;;;5012214;28;20603;-67
2022/07/01 01:40:21;;;;;;;10.95;9.15;;;18.20;99.90;;;;;;5011075;28;20200;-67
2022/07/01 01:42:48;;;;;;;12.10;9.60;;;18.30;99.90;;;;;;5013493;28;20224;-67
2022/07/01 01:45:15;;;;;;;11.90;10.48;;;18.20;99.90;;;;;;5025008;28;20211;-67
2022/07/01 01:47:43;;;;;;;10.32;9.25;;;18.10;99.90;;;;;;5019835;28;20208;-67
2022/07/01 01:50:12;;;;;;;11.85;9.30;;;18.10;99.90;;;;;;5011419;28;20205;-67
2022/07/01 01:52:42;;;;;;;11.55;9.30;;;18.00;99.90;;;;;;5013820;28;20205;-67
2022/07/01 01:55:11;;;;;;;9.68;8.65;;;18.00;99.90;;;;;;5014286;28;20204;-67
2022/07/01 01:57:38;;;;;;;9.55;8.07;;;18.10;99.90;;;;;;5015355;28;20212;-67
2022/07/01 02:00:08;;;;;;;7.18;6.20;;;18.10;99.90;;;;;;5018681;28;20207;-67
2022/07/01 02:02:36;;;;;;;6.78;5.82;;;18.00;99.90;;;;;;5015682;28;20260;-67
2022/07/01 02:05:04;;;;;;;5.78;4.57;;;18.00;99.90;;;;;;5015168;28;20647;-67
2022/07/01 02:07:31;;;;;;;5.43;4.93;;;18.00;99.90;;;;;;5026891;28;20203;-67
2022/07/01 02:09:58;;;;;;;6.32;5.22;;;17.90;99.90;;;;;;5034088;28;20200;-67
2022/07/01 02:12:26;;;;;;;5.68;4.75;;;17.90;99.90;;;;;;5017815;28;20212;-67
2022/07/01 02:14:53;;;;;;;4.32;3.60;;;17.90;99.90;;;;;;5015620;28;20544;-67
2022/07/01 02:17:20;;;;;;;3.78;3.47;;;17.70;99.90;;;;;;5020100;28;20605;-67
2022/07/01 02:19:47;;;;;;;3.42;3.13;;;17.70;99.90;;;;;;5026567;28;20227;-67
2022/07/01 02:22:14;;;;;;;5.13;3.33;;;17.70;99.90;;;;;;5025062;28;20228;-67
2022/07/01 02:24:41;;;;;;;3.83;3.20;;;17.60;99.90;;;;;;5014552;28;20224;-67
2022/07/01 02:27:08;;;;;;;3.45;2.88;;;17.70;99.90;;;;;;5020195;28;20622;-67
2022/07/01 02:29:36;;;;;;;2.78;2.58;;;17.70;99.90;;;;;;5013982;28;20204;-67
2022/07/01 02:32:04;;;;;;;2.08;1.88;;;17.70;99.90;;;;;;5014022;28;20208;-67
2022/07/01 02:34:31;;;;;;;3.75;1.90;;;17.60;99.90;;;;;;5015277;28;20659;-67
2022/07/01 02:36:58;;;;;;;1.45;1.35;;;17.50;99.90;;;;;;5028318;28;20204;-67
2022/07/01 02:39:25;;;;;;;1.60;1.50;;;17.40;99.90;;;;;;5034805;28;20235;-67
2022/07/01 02:44:37;;;;;;;2.65;1.17;;;17.40;99.90;;;;;;5014935;28;20689;-67
2022/07/01 02:47:05;;;;;;;1.45;1.30;;;17.30;99.90;;;;;;5027886;28;20691;-67
2022/07/01 02:49:32;;;;;;;1.35;1.25;;;17.20;99.90;;;;;;5034570;28;20413;-67
2022/07/01 02:51:59;;;;;;;1.33;1.27;;;17.20;99.90;;;;;;5016669;28;20204;-67
2022/07/01 02:54:26;;;;;;;1.48;1.38;;;17.20;99.90;;;;;;5013603;28;20266;-67
2022/07/01 02:56:53;;;;;;;1.63;1.52;;;17.20;99.90;;;;;;5027286;28;20704;-67
2022/07/01 02:59:20;;;;;;;3.65;1.80;;;17.20;99.90;;;;;;5016906;28;20258;-67
2022/07/01 03:01:48;;;;;;;2.42;2.22;;;17.10;99.90;;;;;;5013856;28;20748;-67
2022/07/01 03:04:16;;;;;;;3.38;1.95;;;17.10;99.90;;;;;;5013320;28;20266;-67
2022/07/01 03:06:43;;;;;;;2.78;2.38;;;17.10;99.90;;;;;;5020178;28;20538;-67
2022/07/01 03:09:10;;;;;;;3.80;2.60;;;17.00;99.90;;;;;;5017615;28;20240;-67
2022/07/01 03:11:37;;;;;;;3.28;2.85;;;17.00;99.90;;;;;;5013749;28;20196;-67
2022/07/01 03:14:04;;;;;;;3.45;3.15;;;16.90;99.90;;;;;;5014662;28;20200;-67
2022/07/01 03:16:31;;;;;;;3.22;2.90;;;16.90;99.90;;;;;;5014561;28;20205;-67
2022/07/01 03:19:01;;;;;;;3.90;2.83;;;16.90;99.90;;;;;;5014235;28;20288;-67
2022/07/01 03:21:28;;;;;;;2.95;2.75;;;16.90;99.90;;;;;;5014303;28;20236;-67
2022/07/01 03:23:55;;;;;;;6.20;3.13;;;16.90;99.90;;;;;;5014469;28;20228;-67
2022/07/01 03:26:22;;;;;;;2.80;2.60;;;16.80;99.90;;;;;;5014085;28;20193;-67
2022/07/01 03:28:49;;;;;;;2.95;2.70;;;16.80;99.90;;;;;;5014110;28;20228;-67
2022/07/01 03:31:16;;;;;;;4.28;2.58;;;16.90;99.90;;;;;;5013271;28;20236;-67
2022/07/01 03:33:43;;;;;;;3.25;2.50;;;16.70;99.90;;;;;;5014072;28;20274;-67
2022/07/01 03:36:12;;;;;;;2.95;2.50;;;16.80;99.90;;;;;;5014088;28;20204;-67
2022/07/01 03:38:38;;;;;;;3.33;2.25;;;16.80;99.90;;;;;;5014020;28;20296;-67
2022/07/01 03:41:05;;;;;;;2.58;2.38;;;16.70;99.90;;;;;;5013894;28;20458;-67
2022/07/01 03:43:32;;;;;;;2.33;2.15;;;16.70;99.90;;;;;;5013924;28;20236;-67
2022/07/01 03:45:59;;;;;;;2.70;2.22;;;16.80;99.90;;;;;;5014049;28;20219;-67
2022/07/01 03:48:26;;;;;;;3.90;2.25;;;16.60;99.90;;;;;;5013652;28;20220;-67
2022/07/01 03:50:53;;;;;;;3.28;2.30;;;16.50;99.90;;;;;;5013884;28;20363;-67
2022/07/01 03:56:06;;;;;;;7.75;2.65;;;16.40;99.90;;;;;;4994746;28;20585;-68
2022/07/01 03:58:33;;;;;;;5.27;2.70;;;16.30;99.90;;;;;;5013702;28;20287;-68
2022/07/01 04:01:00;;;;;;;2.87;2.50;;;16.30;99.90;;;;;;5013540;28;20200;-68
2022/07/01 04:03:27;;;;;;;3.20;2.75;;;16.10;99.90;;;;;;5013428;28;20228;-68
2022/07/01 04:05:54;;;;;;;2.75;2.55;;;16.10;99.90;;;;;;5013901;28;20232;-68
2022/07/01 04:08:23;;;;;;;3.50;2.53;;;16.00;99.90;;;;;;5013585;28;20288;-67
2022/07/01 04:10:53;;;;;;;3.15;2.55;;;16.10;99.90;;;;;;5012932;28;20643;-68
2022/07/01 04:13:20;;;;;;;2.88;2.50;;;16.10;99.90;;;;;;5013320;28;20592;-67
2022/07/01 04:15:48;;;;;;;4.27;3.00;;;16.10;99.90;;;;;;5012604;28;20208;-68
2022/07/01 04:18:15;;;;;;;3.00;2.47;;;16.20;99.90;;;;;;5013290;28;20250;-68
2022/07/01 04:20:42;;;;;;;2.50;2.30;;;16.10;99.90;;;;;;5013713;28;20200;-68
2022/07/01 04:23:08;;;;;;;3.00;2.07;;;16.20;99.90;;;;;;5013358;28;20311;-68
2022/07/01 04:25:36;;;;;;;3.27;2.00;;;16.10;99.90;;;;;;5013179;28;20275;-67
2022/07/01 04:28:04;;;;;;;5.10;2.03;;;16.10;99.90;;;;;;5012977;28;20251;-68
2022/07/01 04:30:31;;;;;;;2.65;1.85;;;16.20;99.90;;;;;;5012966;28;20258;-67
2022/07/01 04:32:58;;;;;;;4.35;2.20;;;16.10;99.90;;;;;;5013085;28;20200;-68
2022/07/01 04:35:25;;;;;;;1.98;1.88;;;16.10;99.90;;;;;;5013413;28;20732;-68
2022/07/01 04:37:54;;;;;;;2.73;2.00;;;16.10;99.90;;;;;;5008572;28;20204;-68
2022/07/01 04:40:21;;;;;;;3.28;2.00;;;16.10;99.90;;;;;;5008039;28;20207;-68
2022/07/01 04:42:49;;;;;;;2.40;1.83;;;16.10;99.90;;;;;;4993859;28;20260;-68
2022/07/01 04:45:16;;;;;;;2.23;1.90;;;16.10;99.90;;;;;;5011312;28;21443;-68
2022/07/01 04:47:43;;;;;;;1.87;1.77;;;16.20;99.90;;;;;;5012076;28;20626;-68
2022/07/01 04:50:10;;;;;;;2.17;1.80;;;16.20;99.90;;;;;;5012244;28;20650;-68
2022/07/01 04:52:37;;;;;;;2.75;1.83;;;16.30;99.90;;;;;;5012106;28;20279;-68
2022/07/01 04:55:06;;;;;;;3.10;1.95;;;16.30;99.90;;;;;;5012008;28;20211;-68
2022/07/01 04:57:33;;;;;;;3.58;2.03;;;16.40;99.90;;;;;;5020759;28;20208;-67
2022/07/01 05:00:01;;;;;;;2.92;2.70;;;16.20;99.90;;;;;;5012111;28;20228;-67
2022/07/01 05:02:28;;;;;;;3.42;2.72;;;16.10;99.90;;;;;;5012347;28;20200;-67
2022/07/01 05:04:55;;;;;;;4.40;3.30;;;16.10;99.90;;;;;;5028338;28;20704;-68
2022/07/01 05:07:31;;;;;;;2.87;2.67;;;16.10;99.90;;;;;;5009176;28;20205;-67
2022/07/01 05:09:59;;;;;;;3.00;2.70;;;16.10;99.90;;;;;;5008636;28;20621;-67
2022/07/01 05:12:27;;;;;;;3.78;2.80;;;16.10;99.90;;;;;;5013218;28;20616;-67
2022/07/01 05:14:54;;;;;;;2.80;2.47;;;16.10;99.90;;;;;;5000932;28;20687;-67
2022/07/01 05:21:55;;;;;;;4.33;2.53;;;16.20;99.90;;;;;;5010232;28;20633;-67
2022/07/01 05:22:57;;;;;;;4.70;2.30;;;16.10;99.90;;;;;;5008532;28;20254;-67
2022/07/01 05:25:24;;;;;;;3.20;2.33;;;16.10;99.90;;;;;;5010470;28;20201;-67
2022/07/01 05:27:51;;;;;;;3.20;2.80;;;16.20;99.90;;;;;;5015388;28;20254;-67
2022/07/01 05:30:18;;;;;;;5.88;2.65;;;16.20;99.90;;;;;;5011274;28;20201;-68
2022/07/01 05:32:46;;;;;;;4.50;3.15;;;16.30;99.90;;;;;;5009943;28;20212;-68
2022/07/01 05:35:14;;;;;;;3.53;2.70;;;16.20;99.90;;;;;;5014632;28;20287;-68
2022/07/01 05:37:42;;;;;;;3.35;3.05;;;16.20;99.90;;;;;;5009366;28;20216;-68
2022/07/01 05:40:10;;;;;;;3.07;2.87;;;16.10;99.90;;;;;;5006935;28;20671;-67
2022/07/01 05:42:38;;;;;;;3.37;3.07;;;16.20;99.90;;;;;;5013007;28;20196;-68
2022/07/01 05:45:06;;;;;;;3.92;3.00;;;16.20;99.90;;;;;;5012538;28;20216;-69
2022/07/01 05:47:33;;;;;;;3.70;3.40;;;16.10;99.90;;;;;;5009920;28;20239;-68
2022/07/01 05:50:01;;;;;;;3.35;2.90;;;16.00;99.90;;;;;;5006956;28;20247;-68
2022/07/01 05:52:28;;;;;;;4.33;3.17;;;16.20;99.90;;;;;;5011840;28;20383;-69
2022/07/01 05:54:55;;;;;;;4.03;3.17;;;16.20;99.90;;;;;;5010714;28;20217;-68
2022/07/01 05:57:22;;;;;;;3.33;2.90;;;16.10;99.90;;;;;;5016378;28;20291;-69
2022/07/01 05:59:49;;;;;;;4.90;2.90;;;16.20;99.90;;;;;;5011392;28;20702;-69
2022/07/01 06:02:16;;;;;;;3.97;3.35;;;16.20;99.90;;;;;;5012060;28;20204;-68
2022/07/01 06:04:43;;;;;;;5.00;3.53;;;16.10;99.90;;;;;;5020763;28;20322;-69
2022/07/01 06:07:12;;;;;;;3.42;3.13;;;16.30;99.90;;;;;;5010108;28;20197;-69
2022/07/01 06:09:39;;;;;;;4.73;3.90;;;16.20;99.90;;;;;;5013684;28;20236;-69
2022/07/01 06:12:07;;;;;;;6.03;3.40;;;16.30;99.90;;;;;;5002035;28;20224;-69
2022/07/01 06:14:34;;;;;;;3.77;3.33;;;16.30;99.90;;;;;;5010587;28;20618;-70
2022/07/01 06:17:01;;;;;;;3.83;3.53;;;16.30;99.90;;;;;;5011188;28;20270;-69
2022/07/01 06:19:28;;;;;;;6.07;3.95;;;16.40;99.90;;;;;;5010967;28;20244;-69
2022/07/01 06:21:55;;;;;;;5.38;3.67;;;16.30;99.90;;;;;;5024906;28;20293;-69
2022/07/01 06:24:24;;;;;;;5.18;3.70;;;16.20;99.90;;;;;;5031462;28;20626;-68
2022/07/01 06:26:51;;;;;;;4.32;3.92;;;16.20;99.90;;;;;;5031155;28;20238;-68
2022/07/01 06:29:18;;;;;;;6.50;4.75;;;16.40;99.90;;;;;;5030828;28;20204;-68
2022/07/01 06:31:45;;;;;;;5.22;4.07;;;16.40;99.90;;;;;;5024870;28;20208;-68
2022/07/01 06:34:12;;;;;;;6.68;4.25;;;16.50;99.90;;;;;;5011258;28;20212;-68
2022/07/01 06:36:39;;;;;;;6.32;4.20;;;16.60;99.90;;;;;;4992179;28;20291;-68
2022/07/01 06:39:06;;;;;;;5.63;3.75;;;16.50;99.90;;;;;;5005266;28;20262;-68
2022/07/01 06:41:34;;;;;;;5.60;4.22;;;16.50;99.90;;;;;;5014319;28;20631;-68
2022/07/01 06:44:04;;;;;;;5.25;4.00;;;16.50;99.90;;;;;;5020663;28;20634;-68
2022/07/01 06:46:31;;;;;;;5.95;4.30;;;16.60;99.90;;;;;;5017258;28;20220;-69
2022/07/01 06:48:59;;;;;;;6.80;4.53;;;16.60;99.90;;;;;;5017062;28;20636;-68
2022/07/01 06:51:26;;;;;;;6.25;4.65;;;16.60;99.90;;;;;;5023366;28;20271;-68
2022/07/01 06:53:53;;;;;;;5.72;4.47;;;16.80;99.90;;;;;;5026742;28;20253;-68
2022/07/01 06:56:20;;;;;;;5.32;4.68;;;16.70;99.90;;;;;;5026344;28;20247;-68
2022/07/01 06:58:48;;;;;;;5.72;4.70;;;16.80;99.90;;;;;;5015028;28;20205;-68
2022/07/01 07:01:15;;;;;;;5.70;4.75;;;16.80;99.90;;;;;;5001755;28;20192;-68
2022/07/01 07:03:42;;;;;;;6.13;5.15;;;16.90;99.90;;;;;;5016802;28;20310;-68
2022/07/01 07:06:09;;;;;;;6.68;5.30;;;16.80;99.90;;;;;;5020831;28;20663;-68
2022/07/01 07:08:36;;;;;;;7.05;5.32;;;16.80;99.90;;;;;;5018399;28;20201;-68
2022/07/01 07:11:03;;;;;;;7.22;5.55;;;16.80;99.90;;;;;;5019928;28;20243;-68
2022/07/01 07:13:30;;;;;;;7.47;5.28;;;16.90;99.90;;;;;;5027446;28;20208;-68
2022/07/01 07:15:59;;;;;;;8.05;5.35;;;16.70;99.90;;;;;;5028129;28;20701;-68
2022/07/01 07:18:26;;;;;;;7.88;6.30;;;16.80;99.90;;;;;;5020247;28;20249;-68
2022/07/01 07:20:52;;;;;;;7.10;5.53;;;16.70;99.90;;;;;;5024531;28;20347;-71
2022/07/01 07:23:19;;;;;;;7.30;5.47;;;16.60;99.90;;;;;;5013078;28;20247;-72
2022/07/01 07:25:46;;;;;;;9.73;6.72;;;16.60;99.90;;;;;;5014349;28;20204;-73
2022/07/01 07:28:13;;;;;;;6.55;5.85;;;16.50;99.90;;;;;;5013894;28;20228;-73
2022/07/01 07:30:40;;;;;;;7.50;6.28;;;16.60;99.90;;;;;;5015816;28;20211;-72
2022/07/01 07:33:09;;;;;;;8.18;6.32;;;16.70;99.90;;;;;;5019118;28;20271;-73
2022/07/01 07:35:36;;;;;;;9.07;6.35;;;16.80;99.90;;;;;;5013287;28;20258;-72
2022/07/01 07:38:03;;;;;;;7.28;6.07;;;16.60;99.90;;;;;;5014272;28;20207;-72
2022/07/01 07:40:30;;;;;;;7.47;6.20;;;16.70;99.90;;;;;;5013605;28;20633;-73
2022/07/01 07:42:57;;;;;;;8.73;5.57;;;16.80;99.90;;;;;;5015584;28;20647;-72
2022/07/01 07:45:24;;;;;;;7.65;6.20;;;16.60;99.90;;;;;;5029279;28;20303;-72
2022/07/01 07:47:54;;;;;;;7.68;6.65;;;16.60;99.90;;;;;;5013378;28;20239;-73
2022/07/01 07:50:23;;;;;;;7.10;6.38;;;16.50;99.90;;;;;;5012212;28;20228;-73
2022/07/01 07:52:50;;;;;;;8.73;7.03;;;16.40;99.90;;;;;;5012845;28;20712;-72
2022/07/01 07:55:17;;;;;;;9.88;7.40;;;16.40;99.90;;;;;;5012448;28;20200;-72
2022/07/01 07:57:44;;;;;;;11.93;7.80;;;16.30;99.90;;;;;;5014865;28;20206;-72
2022/07/01 08:00:13;;;;;;;10.20;7.32;;;16.30;99.90;;;;;;5011443;28;20235;-71
2022/07/01 08:02:41;;;;;;;11.45;7.68;;;16.30;99.90;;;;;;5021422;28;20258;-71
2022/07/01 08:05:11;;;;;;;11.20;6.70;;;16.30;99.90;;;;;;5012885;28;20673;-71
2022/07/01 08:07:41;;;;;;;9.75;7.53;;;16.30;99.90;;;;;;5013124;28;20617;-73
2022/07/01 08:10:10;;;;;;;13.52;8.35;;;16.30;99.90;;;;;;5009143;28;20266;-72
2022/07/01 08:12:38;;;;;;;8.68;6.88;;;16.30;99.90;;;;;;5010141;28;20208;-73
2022/07/01 08:15:06;;;;;;;8.73;6.85;;;16.30;99.90;;;;;;5011125;28;20267;-72
2022/07/01 08:17:33;;;;;;;8.02;6.80;;;16.20;99.90;;;;;;5011847;28;20224;-72
2022/07/01 08:20:00;;;;;;;9.68;6.47;;;16.20;99.90;;;;;;5009884;28;20270;-73
2022/07/01 08:22:27;;;;;;;7.38;5.40;;;16.10;99.90;;;;;;5013687;28;20208;-73
2022/07/01 08:24:56;;;;;;;5.22;4.57;;;16.10;99.90;;;;;;5012655;28;20278;-73
2022/07/01 08:27:23;;;;;;;3.85;3.55;;;16.00;99.90;;;;;;5016552;28;20217;-73
2022/07/01 08:29:50;;;;;;;4.28;3.33;;;16.00;99.90;;;;;;5028298;28;20203;-73
2022/07/01 08:32:18;;;;;;;3.60;3.30;;;16.00;99.90;;;;;;5031617;28;20593;-73
2022/07/01 08:34:45;;;;;;;3.35;3.03;;;16.20;99.90;;;;;;5023941;28;20203;-73
2022/07/01 08:37:12;;;;;;;3.95;2.70;;;16.10;99.90;;;;;;5013250;28;20196;-73
2022/07/01 08:39:39;;;;;;;3.38;2.63;;;16.20;99.90;;;;;;5019336;28;20204;-72
2022/07/01 08:42:08;;;;;;;2.92;2.47;;;16.30;99.90;;;;;;5013075;28;20192;-72
2022/07/01 08:44:35;;;;;;;3.45;2.92;;;16.30;99.90;;;;;;5012333;28;20228;-72
2022/07/01 08:47:03;;;;;;;2.80;2.60;;;16.40;99.90;;;;;;5013037;28;20239;-72
2022/07/01 08:49:31;;;;;;;3.53;2.80;;;16.50;99.90;;;;;;5012942;28;20205;-72
2022/07/01 08:51:58;;;;;;;3.73;3.07;;;16.50;99.90;;;;;;5012954;28;20200;-72
2022/07/01 08:54:25;;;;;;;4.07;3.03;;;16.50;99.90;;;;;;5012824;28;20247;-72
2022/07/01 08:56:52;;;;;;;5.32;3.65;;;16.50;99.90;;;;;;5012813;28;20240;-72
2022/07/01 08:59:26;;;;;;;11.98;8.73;;;16.60;99.90;;;;;;5012043;28;20296;-72
2022/07/01 09:01:57;;;;;;;5.32;4.60;;;16.60;99.90;;;;;;5010992;28;20196;-72
2022/07/01 09:04:24;;;;;;;5.90;3.97;;;16.50;99.90;;;;;;5012369;28;20232;-72
2022/07/01 09:06:52;;;;;;;4.70;4.22;;;16.50;99.90;;;;;;5022190;28;20302;-72
2022/07/01 09:09:21;;;;;;;7.77;5.00;;;16.70;99.90;;;;;;5029252;28;20322;-71
2022/07/01 09:11:53;;;;;;;7.13;5.00;;;16.70;99.90;;;;;;5021283;28;20211;-72
2022/07/01 09:14:21;;;;;;;5.95;5.10;;;16.70;99.90;;;;;;5012716;28;20208;-71
2022/07/01 09:16:51;;;;;;;6.95;5.45;;;16.90;99.90;;;;;;5020876;28;20204;-71
2022/07/01 09:19:20;;;;;;;5.95;5.15;;;16.70;99.90;;;;;;5019012;28;20673;-72
2022/07/01 09:21:50;;;;;;;6.28;5.50;;;16.70;99.90;;;;;;5012288;28;20507;-71
2022/07/01 09:24:26;;;;;;;6.82;5.55;;;16.80;99.90;;;;;;5012407;28;20239;-71
2022/07/01 09:26:55;;;;;;;6.22;5.63;;;16.70;99.90;;;;;;5012031;28;20215;-71
2022/07/01 09:29:27;;;;;;;7.90;6.03;;;16.90;99.90;;;;;;5012425;28;20200;-71
2022/07/01 09:31:55;;;;;;;7.78;6.70;;;16.90;99.90;;;;;;5011500;28;20205;-72
2022/07/01 09:34:22;;;;;;;8.13;6.10;;;16.90;99.90;;;;;;5012342;28;20205;-71
2022/07/01 09:36:57;;;;;;;7.30;6.07;;;16.70;99.90;;;;;;5012320;28;20538;-71
2022/07/01 09:39:24;;;;;;;7.32;6.00;;;16.70;99.90;;;;;;5011358;28;20258;-71
2022/07/01 09:41:55;;;;;;;7.72;6.07;;;16.90;99.90;;;;;;5012338;28;20232;-71
2022/07/01 09:44:22;;;;;;;9.98;6.97;;;17.00;99.90;;;;;;5011571;28;20226;-71
2022/07/01 09:46:57;;;;;;;7.85;6.53;;;17.00;99.90;;;;;;5012167;28;20559;-71
2022/07/01 09:49:25;;;;;;;9.80;7.18;;;17.10;99.90;;;;;;5011408;28;20270;-71
2022/07/01 09:51:52;;;;;;;7.80;6.47;;;17.30;99.90;;;;;;5018241;28;20578;-71
2022/07/01 09:54:20;;;;;;;8.85;6.25;;;17.20;99.90;;;;;;5023030;28;20228;-71
2022/07/01 09:56:47;;;;;;;11.15;7.38;;;17.20;99.90;;;;;;5014594;28;20243;-71
2022/07/01 09:59:14;;;;;;;9.73;7.15;;;17.30;99.90;;;;;;5011082;28;20205;-71
2022/07/01 10:01:44;;;;;;;9.70;7.03;;;17.40;99.90;;;;;;5011425;28;20854;-71
2022/07/01 10:04:14;;;;;;;9.48;7.38;;;17.40;99.90;;;;;;5012139;28;20262;-71
2022/07/01 10:06:54;;;;;;;10.20;7.43;;;17.40;99.90;;;;;;5012131;28;20205;-71
2022/07/01 10:09:44;;;;;;;11.63;8.18;;;17.50;99.90;;;;;;5011595;28;20283;-71
2022/07/01 10:12:31;;;;;;;11.05;7.95;;;17.50;99.90;;;;;;5011616;28;20722;-71
2022/07/01 10:15:00;;;;;;;11.15;8.02;;;17.70;99.90;;;;;;5013581;28;20654;-71
2022/07/01 10:17:30;;;;;;;10.13;8.07;;;17.60;99.90;;;;;;5015500;28;20199;-70
2022/07/01 10:20:08;;;;;;;10.50;7.93;;;17.80;99.90;;;;;;5023535;28;20299;-70
2022/07/01 10:22:37;;;;;;;12.23;8.45;;;17.80;99.90;;;;;;5030660;28;20314;-70
2022/07/01 10:25:34;;;;;;;9.80;8.07;;;17.90;99.90;;;;;;5016115;28;20725;-71
2022/07/01 10:28:25;;;;;;;13.13;8.52;;;18.00;99.90;;;;;;5015909;28;20232;-70
2022/07/01 10:31:02;;;;;;;10.13;7.63;;;17.80;99.90;;;;;;5014588;28;20243;-70
2022/07/01 10:33:47;;;;;;;10.77;7.90;;;17.80;99.90;;;;;;5015564;28;20204;-71
2022/07/01 10:36:19;;;;;;;10.65;8.15;;;17.90;99.90;;;;;;5014321;28;20264;-71
2022/07/01 10:39:27;;;;;;;10.73;8.23;;;17.70;99.90;;;;;;5015337;28;20208;-71
2022/07/01 10:42:05;;;;;;;13.68;8.90;;;17.80;99.90;;;;;;5015503;28;20228;-71
2022/07/01 10:44:36;;;;;;;13.52;8.65;;;17.40;99.90;;;;;;5014947;28;20203;-71
2022/07/01 10:47:05;;;;;;;13.77;8.70;;;17.40;99.90;;;;;;5014755;28;20304;-71
2022/07/01 10:49:55;;;;;;;12.30;8.75;;;17.30;99.90;;;;;;5014628;28;20254;-73
2022/07/01 10:52:24;;;;;;;12.20;9.15;;;17.40;99.90;;;;;;5014787;28;20725;-73
2022/07/01 10:54:55;;;;;;;16.67;9.27;;;17.40;99.90;;;;;;5015145;28;20266;-74
2022/07/01 10:57:34;;;;;;;11.40;8.75;;;17.60;99.90;;;;;;5012496;28;20219;-74
2022/07/01 11:00:34;;;;;;;11.65;9.02;;;17.50;99.90;;;;;;5011287;28;20236;-76
2022/07/01 11:03:17;;;;;;;13.02;9.27;;;17.70;99.90;;;;;;5023079;28;20207;-72
2022/07/01 11:05:45;;;;;;;13.35;9.20;;;17.80;99.90;;;;;;5020394;28;20659;-74
2022/07/01 11:08:14;;;;;;;14.73;10.68;;;17.80;99.90;;;;;;5015580;28;20235;-74
2022/07/01 11:10:42;;;;;;;11.68;9.43;;;17.90;99.90;;;;;;5019021;28;20222;-73
2022/07/01 11:13:13;;;;;;;12.52;9.38;;;18.10;99.90;;;;;;5018080;28;20307;-73
2022/07/01 11:15:40;;;;;;;12.23;9.18;;;18.30;99.90;;;;;;5029238;28;20634;-74
2022/07/01 11:18:08;;;;;;;11.88;8.95;;;18.30;99.90;;;;;;5027159;28;20204;-74
2022/07/01 11:20:35;;;;;;;12.70;9.30;;;18.20;99.90;;;;;;5024208;28;20226;-74
2022/07/01 11:23:02;;;;;;;13.23;8.35;;;18.40;99.90;;;;;;5025626;28;20319;-74
2022/07/01 11:25:31;;;;;;;10.15;8.40;;;18.50;99.90;;;;;;5010584;28;20333;-73
2022/07/01 11:27:59;;;;;;;11.15;8.35;;;18.50;99.90;;;;;;5010554;28;20666;-74
2022/07/01 11:30:26;;;;;;;10.63;7.90;;;18.20;99.90;;;;;;5011905;28;20685;-73
2022/07/01 11:32:55;;;;;;;8.85;7.72;;;18.20;99.90;;;;;;5010990;28;20204;-74
2022/07/01 11:40:59;;;;;;;10.73;8.07;;;18.20;99.90;;;;;;5010953;28;20273;-69
2022/07/01 11:43:31;;;;;;;7.65;6.85;;;18.10;99.90;;;;;;5010353;28;20259;-73
2022/07/01 11:46:01;;;;;;;10.00;6.70;;;18.00;99.90;;;;;;5010878;28;20232;-71
2022/07/01 11:48:37;;;;;;;13.80;7.20;;;18.00;99.90;;;;;;5011699;28;20208;-71
2022/07/01 11:51:11;;;;;;;8.95;6.53;;;17.90;99.90;;;;;;5010720;28;20219;-78
2022/07/01 11:53:39;;;;;;;6.63;6.03;;;17.90;99.90;;;;;;5011737;28;20219;-73
2022/07/01 11:56:07;;;;;;;8.05;6.18;;;17.90;99.90;;;;;;5015274;28;20610;-73
2022/07/01 11:58:45;;;;;;;7.07;5.35;;;17.80;99.90;;;;;;5021819;28;20235;-73
2022/07/01 12:01:20;;;;;;;9.48;6.00;;;17.80;99.90;;;;;;5010643;28;20227;-72
2022/07/01 12:03:47;;;;;;;7.72;5.63;;;17.90;99.90;;;;;;5010617;28;20239;-74
2022/07/01 12:06:15;;;;;;;6.68;5.43;;;17.80;99.90;;;;;;5011167;28;20324;-72
2022/07/01 12:08:43;;;;;;;7.22;5.47;;;17.70;99.90;;;;;;5010820;28;20255;-73
2022/07/01 12:11:11;;;;;;;7.05;5.35;;;17.80;99.90;;;;;;5011161;28;20235;-75
2022/07/01 12:13:39;;;;;;;7.90;5.47;;;17.80;99.90;;;;;;5011522;28;20236;-72
2022/07/01 12:16:09;;;;;;;5.70;4.80;;;17.80;99.90;;;;;;5008554;28;20244;-72
2022/07/01 12:18:36;;;;;;;6.15;5.47;;;17.80;99.90;;;;;;5011132;28;20295;-72
2022/07/01 12:21:04;;;;;;;5.70;5.15;;;18.00;99.90;;;;;;5010315;28;20263;-76
2022/07/01 12:23:32;;;;;;;7.80;5.82;;;18.00;99.90;;;;;;5009999;28;20308;-76
2022/07/01 12:25:59;;;;;;;7.22;5.35;;;17.80;99.90;;;;;;5010524;28;20236;-75
2022/07/01 12:28:33;;;;;;;6.50;5.90;;;17.90;99.90;;;;;;5010873;28;20295;-75
2022/07/01 12:31:07;;;;;;;5.55;4.95;;;18.00;99.90;;;;;;5010027;28;20240;-71
2022/07/01 12:33:35;;;;;;;7.43;5.70;;;18.00;99.90;;;;;;5018083;28;20599;-70
2022/07/01 12:36:05;;;;;;;7.45;5.10;;;18.00;99.90;;;;;;5010187;28;20671;-72
2022/07/01 12:38:32;;;;;;;7.40;5.68;;;18.00;99.90;;;;;;5010599;28;20244;-73
2022/07/01 12:41:00;;;;;;;7.28;6.00;;;18.10;99.90;;;;;;5009905;28;20287;-70
2022/07/01 12:43:34;;;;;;;6.63;5.25;;;18.00;99.90;;;;;;5009549;28;20274;-72
2022/07/01 12:46:03;;;;;;;8.77;5.75;;;18.00;99.90;;;;;;5009815;28;20322;-71
2022/07/01 12:48:30;;;;;;;6.60;5.63;;;18.00;99.90;;;;;;5010253;28;20318;-69
2022/07/01 12:50:58;;;;;;;8.90;5.53;;;18.10;99.90;;;;;;5011016;28;20278;-70
2022/07/01 12:53:26;;;;;;;7.10;5.65;;;17.90;99.90;;;;;;5010168;28;20324;-70
2022/07/01 12:55:54;;;;;;;6.40;5.45;;;18.00;99.90;;;;;;5010387;28;20216;-70
2022/07/01 12:58:24;;;;;;;10.13;6.30;;;18.10;99.90;;;;;;5009536;28;20442;-71
2022/07/01 13:00:52;;;;;;;7.05;5.80;;;18.20;99.90;;;;;;5010166;28;20204;-70
2022/07/01 13:03:22;;;;;;;7.57;5.30;;;18.40;99.90;;;;;;5014755;28;20199;-70
2022/07/01 13:05:50;;;;;;;7.25;5.53;;;18.30;99.90;;;;;;5026338;28;20232;-70